LIRN Información de aeropuertos

Información de pistas
Pista 06 Longitud 8622 ft Ancho 148 ft
Elevación 284 ft Umbral 1309 ft Rumbo 58
Pista 24 Longitud 8622 ft Ancho 148 ft
Elevación 223 ft Umbral 624 ft Rumbo 238
Frecuencias
Tipo APP Nombre NAPOLI RAD Frequencia 124.35 MHZ
Tipo ATIS Nombre ATIS Frequencia 135.975 MHZ
Tipo DIR Nombre NAPOLI DIR Frequencia 120.95 MHZ
Tipo GCCD Nombre NAPOLI GND Frequencia 121.9 MHZ
Tipo OPS Nombre USN BASE O Frequencia 118.275 MHZ
Tipo PMSV Nombre PMSV METRO Frequencia 34.1 MHZ
Tipo POST Nombre ATOC Frequencia 118.275 MHZ
Tipo TWR Nombre NAPOLI TWR Frequencia 118.5 MHZ
Radioayudas
Tipo VOR-DME Nombre Pomigliano Frequencia 117850 KHZ
Tipo NDB Nombre Pomigliano Frequencia 351 KHZ
Información meteorológica y NOTAM
ADDS - METARS form results

(2014 UTC 27 September 2021)
Data provider http://aviationweather.gov/metar/data/
 
METAR text: LIRN 271950Z AUTO VRB02KT 9999 NCD 23/21 Q1017
Conditions at: LIRN (NAPLES/CAPODICHI, IT) observed 1950 UTC 27 September 2021
Temperature: 23.0°C (73°F)
Dewpoint: 21.0°C (70°F) [RH = 89%]
Pressure (altimeter): 30.03 inches Hg (1017.0 mb)
Winds: variable direction winds at 2 MPH (2 knots; 1.0 m/s)
Visibility: 6 or more miles (10+ km)
Ceiling: at least 12,000 feet AGL
Clouds: sky clear below 12,000 feet AGL
Weather: no significant weather observed at this time

METAR text: LIRN 271920Z AUTO 22002KT 9999 NCD 23/21 Q1016
Conditions at: LIRN (NAPLES/CAPODICHI, IT) observed 1920 UTC 27 September 2021
Temperature: 23.0°C (73°F)
Dewpoint: 21.0°C (70°F) [RH = 89%]
Pressure (altimeter): 30.00 inches Hg (1016.0 mb)
Winds: from the SW (220 degrees) at 2 MPH (2 knots; 1.0 m/s)
Visibility: 6 or more miles (10+ km)
Ceiling: at least 12,000 feet AGL
Clouds: sky clear below 12,000 feet AGL
Weather: no significant weather observed at this time

Forecast for: LIRN (NAPLES/CAPODICHI, IT)
Text: TAF LIRN 271700Z 2718/2818 VRB05KT 9999 FEW040
Forecast period: 1800 UTC 27 September 2021 to 1800 UTC 28 September 2021
Forecast type: FROM: standard forecast or significant change
Winds: variable direction winds at 6 MPH (5 knots; 2.6 m/s)
Visibility: 6 or more miles (10+ km)
Ceiling: at least 12,000 feet AGL
Clouds: few clouds at 4000 feet AGL
Weather: no significant weather forecast for this period
Text: TEMPO 2718/2723 TSRA
Forecast period: 1800 to 2300 UTC 27 September 2021
Forecast type: TEMPORARY: The following changes expected for less than half the time period
Visibility: missing
Ceiling: unknown
Clouds: missing
Weather: TSRA  (rain associated with thunderstorm(s))
Text: BECMG 2716/2718 VRB05KT
Forecast period: 1600 UTC 27 September 2021 to 1800 UTC 28 September 2021
Forecast type: BECOMING: Conditions expected to become as follows by 1800 UTC 27 September 2021
Winds: variable direction winds at 6 MPH (5 knots; 2.6 m/s)
Visibility: 6 or more miles (10+ km)
Ceiling: at least 12,000 feet AGL
Clouds: few clouds at 4000 feet AGL
Weather: no significant weather forecast for this period